createdAt,value
2015-05-10T00:00:07.478Z,21.6
2015-05-10T00:00:25.712Z,21.6
2015-05-10T00:00:43.962Z,21.6
2015-05-10T00:01:02.229Z,21.6
2015-05-10T00:01:20.479Z,21.6
2015-05-10T00:01:38.714Z,21.6
2015-05-10T00:01:56.964Z,21.6
2015-05-10T00:02:15.231Z,21.6
2015-05-10T00:02:33.481Z,21.6
2015-05-10T00:02:51.731Z,21.6
2015-05-10T00:03:10.007Z,21.6
2015-05-10T00:03:28.242Z,21.6
2015-05-10T00:03:46.476Z,21.6
2015-05-10T00:04:04.734Z,21.6
2015-05-10T00:04:22.984Z,21.6
2015-05-10T00:04:41.234Z,21.6
2015-05-10T00:04:59.484Z,21.6
2015-05-10T00:05:17.742Z,21.6
2015-05-10T00:05:35.992Z,21.6
2015-05-10T00:05:54.227Z,21.6
2015-05-10T00:06:12.485Z,21.6
2015-05-10T00:06:30.735Z,21.6
2015-05-10T00:06:48.985Z,21.6
2015-05-10T00:07:07.235Z,21.6
2015-05-10T00:07:25.476Z,21.6
2015-05-10T00:07:43.726Z,21.6
2015-05-10T00:08:01.976Z,21.6
2015-05-10T00:08:20.216Z,21.6
2015-05-10T00:08:38.466Z,21.6
2015-05-10T00:08:56.716Z,21.6
2015-05-10T00:09:14.970Z,21.6
2015-05-10T00:09:33.205Z,21.6
2015-05-10T00:09:51.455Z,21.6
2015-05-10T00:10:09.705Z,21.6
2015-05-10T00:10:27.960Z,21.6
2015-05-10T00:10:46.210Z,21.6
2015-05-10T00:11:04.460Z,21.6
2015-05-10T00:11:22.714Z,21.6
2015-05-10T00:11:40.964Z,21.6
2015-05-10T00:11:59.214Z,21.6
2015-05-10T00:12:17.448Z,21.6
2015-05-10T00:12:35.702Z,21.6
2015-05-10T00:12:53.936Z,21.6
2015-05-10T00:13:12.202Z,21.6
2015-05-10T00:13:30.456Z,21.6
2015-05-10T00:13:48.690Z,21.6
2015-05-10T00:14:06.940Z,21.6
2015-05-10T00:14:25.193Z,21.6
2015-05-10T00:14:43.443Z,21.6
2015-05-10T00:15:01.678Z,21.6
2015-05-10T00:15:19.928Z,21.6
2015-05-10T00:15:38.181Z,21.6
2015-05-10T00:15:56.431Z,21.6
2015-05-10T00:16:14.681Z,21.6
2015-05-10T00:16:32.934Z,21.6
2015-05-10T00:16:51.184Z,21.6
2015-05-10T00:17:09.434Z,21.6
2015-05-10T00:17:27.687Z,21.5
2015-05-10T00:17:45.937Z,21.5
2015-05-10T00:18:04.171Z,21.6
2015-05-10T00:18:22.421Z,21.5
2015-05-10T00:18:40.674Z,21.6
2015-05-10T00:18:58.924Z,21.5
2015-05-10T00:19:17.159Z,21.6
2015-05-10T00:19:35.412Z,21.5
2015-05-10T00:19:53.662Z,21.5
2015-05-10T00:20:11.912Z,21.5
2015-05-10T00:20:30.164Z,21.5
2015-05-10T00:20:48.398Z,21.5
2015-05-10T00:21:06.664Z,21.5
2015-05-10T00:21:24.898Z,21.5
2015-05-10T00:21:43.151Z,21.5
2015-05-10T00:22:01.401Z,21.5
2015-05-10T00:22:19.635Z,21.5
2015-05-10T00:22:37.887Z,21.5
2015-05-10T00:22:56.137Z,21.5
2015-05-10T00:23:14.387Z,21.5
2015-05-10T00:23:32.640Z,21.5
2015-05-10T00:23:50.890Z,21.5
2015-05-10T00:24:09.125Z,21.5
2015-05-10T00:24:27.375Z,21.5
2015-05-10T00:24:45.628Z,21.5
2015-05-10T00:25:03.878Z,21.5
2015-05-10T00:25:22.128Z,21.5
2015-05-10T00:25:40.380Z,21.5
2015-05-10T00:25:58.630Z,21.5
2015-05-10T00:26:16.864Z,21.5
2015-05-10T00:26:35.114Z,21.5
2015-05-10T00:26:53.366Z,21.5
2015-05-10T00:27:11.600Z,21.5
2015-05-10T00:27:29.850Z,21.5
2015-05-10T00:27:48.103Z,21.5
2015-05-10T00:28:06.338Z,21.5
2015-05-10T00:28:24.588Z,21.5
2015-05-10T00:28:42.839Z,21.5
2015-05-10T00:29:01.073Z,21.5
2015-05-10T00:29:19.323Z,21.5
2015-05-10T00:29:37.573Z,21.5
2015-05-10T00:29:55.811Z,21.5
2015-05-10T00:30:14.076Z,21.5
2015-05-10T00:30:32.326Z,21.5
2015-05-10T00:30:50.579Z,21.5
2015-05-10T00:31:08.814Z,21.5
2015-05-10T00:31:27.064Z,21.5
2015-05-10T00:31:45.314Z,21.5
2015-05-10T00:32:03.550Z,21.5
2015-05-10T00:32:21.800Z,21.5
2015-05-10T00:32:40.050Z,21.5
2015-05-10T00:32:58.303Z,21.5
2015-05-10T00:33:16.537Z,21.5
2015-05-10T00:33:34.787Z,21.5
2015-05-10T00:33:53.037Z,21.5
2015-05-10T00:34:11.289Z,21.5
2015-05-10T00:34:29.524Z,21.5
2015-05-10T00:34:47.774Z,21.5
2015-05-10T00:35:06.027Z,21.5
2015-05-10T00:35:24.261Z,21.5
2015-05-10T00:35:42.511Z,21.5
2015-05-10T00:36:00.761Z,21.5
2015-05-10T00:36:18.997Z,21.5
2015-05-10T00:36:37.263Z,21.5
2015-05-10T00:36:55.497Z,21.5
2015-05-10T00:37:13.750Z,21.5
2015-05-10T00:37:32.000Z,21.5
2015-05-10T00:37:50.250Z,21.5
2015-05-10T00:38:08.516Z,21.5
2015-05-10T00:38:26.768Z,21.5
2015-05-10T00:38:45.002Z,21.5
2015-05-10T00:39:03.252Z,21.5
2015-05-10T00:39:21.489Z,21.5
2015-05-10T00:39:39.739Z,21.5
2015-05-10T00:39:57.989Z,21.5
2015-05-10T00:40:16.241Z,21.5
2015-05-10T00:40:34.475Z,21.5
2015-05-10T00:40:52.725Z,21.5
2015-05-10T00:41:10.975Z,21.5
2015-05-10T00:41:29.243Z,21.5
2015-05-10T00:41:47.493Z,21.5
2015-05-10T00:42:05.727Z,21.5
2015-05-10T00:42:23.980Z,21.5
2015-05-10T00:42:42.230Z,21.5
2015-05-10T00:43:00.465Z,21.5
2015-05-10T00:43:18.717Z,21.5
2015-05-10T00:43:36.967Z,21.5
2015-05-10T00:43:55.217Z,21.5
2015-05-10T00:44:13.467Z,21.5
2015-05-10T00:44:31.720Z,21.5
2015-05-10T00:44:49.954Z,21.5
2015-05-10T00:45:08.204Z,21.5
2015-05-10T00:45:26.456Z,21.5
2015-05-10T00:45:44.706Z,21.5
2015-05-10T00:46:02.956Z,21.5
2015-05-10T00:46:21.208Z,21.5
2015-05-10T00:46:39.442Z,21.5
2015-05-10T00:46:57.692Z,21.5
2015-05-10T00:47:15.942Z,21.5
2015-05-10T00:47:34.180Z,21.5
2015-05-10T00:47:52.430Z,21.5
2015-05-10T00:48:10.680Z,21.5
2015-05-10T00:48:28.932Z,21.5
2015-05-10T00:48:47.182Z,21.5
2015-05-10T00:49:05.432Z,21.5
2015-05-10T00:49:23.668Z,21.5
2015-05-10T00:49:41.918Z,21.5
2015-05-10T00:50:00.168Z,21.5
2015-05-10T00:50:18.418Z,21.5
2015-05-10T00:50:36.655Z,21.5
2015-05-10T00:50:54.905Z,21.5
2015-05-10T00:51:13.155Z,21.5
2015-05-10T00:51:31.407Z,21.5
2015-05-10T00:51:49.657Z,21.5
2015-05-10T00:52:07.907Z,21.5
2015-05-10T00:52:26.145Z,21.5
2015-05-10T00:52:44.395Z,21.5
2015-05-10T00:53:02.645Z,21.5
2015-05-10T00:53:20.879Z,21.5
2015-05-10T00:53:39.130Z,21.5
2015-05-10T00:53:57.380Z,21.5
2015-05-10T00:54:15.615Z,21.5
2015-05-10T00:54:33.869Z,21.5
2015-05-10T00:54:52.103Z,21.5
2015-05-10T00:55:10.353Z,21.5
2015-05-10T00:55:28.604Z,21.5
2015-05-10T00:55:46.854Z,21.5
2015-05-10T00:56:05.088Z,21.5
2015-05-10T00:56:23.338Z,21.5
2015-05-10T00:56:41.591Z,21.5
2015-05-10T00:56:59.841Z,21.5
2015-05-10T00:57:18.091Z,21.5
2015-05-10T00:57:36.344Z,21.5
2015-05-10T00:57:54.579Z,21.5
2015-05-10T00:58:12.829Z,21.5
2015-05-10T00:58:31.079Z,21.5
2015-05-10T00:58:49.331Z,21.5
2015-05-10T00:59:07.581Z,21.5
2015-05-10T00:59:25.815Z,21.5
2015-05-10T00:59:44.068Z,21.5
2015-05-10T01:00:02.318Z,21.5
2015-05-10T01:00:20.552Z,21.5
2015-05-10T01:00:38.802Z,21.5
2015-05-10T01:00:57.054Z,21.5
2015-05-10T01:01:15.304Z,21.5
2015-05-10T01:01:33.539Z,21.5
2015-05-10T01:01:51.791Z,21.5
2015-05-10T01:02:10.041Z,21.5
2015-05-10T01:02:28.291Z,21.5
2015-05-10T01:02:46.525Z,21.5
2015-05-10T01:03:04.778Z,21.5
2015-05-10T01:03:23.028Z,21.5
2015-05-10T01:03:41.263Z,21.5
2015-05-10T01:03:59.530Z,21.5
2015-05-10T01:04:17.780Z,21.5
2015-05-10T01:04:36.030Z,21.5
2015-05-10T01:04:54.265Z,21.5
2015-05-10T01:05:12.518Z,21.5
2015-05-10T01:05:30.768Z,21.5
2015-05-10T01:05:49.018Z,21.5
2015-05-10T01:06:07.254Z,21.5
2015-05-10T01:06:25.504Z,21.5
2015-05-10T01:06:43.738Z,21.5
2015-05-10T01:07:01.990Z,21.5
2015-05-10T01:07:20.240Z,21.5
2015-05-10T01:07:38.490Z,21.5
2015-05-10T01:07:56.725Z,21.5
2015-05-10T01:08:14.977Z,21.5
2015-05-10T01:08:33.227Z,21.5
2015-05-10T01:08:51.477Z,21.5
2015-05-10T01:09:09.713Z,21.5
2015-05-10T01:09:27.963Z,21.5
2015-05-10T01:09:46.213Z,21.5
2015-05-10T01:10:04.466Z,21.5
2015-05-10T01:10:22.716Z,21.5
2015-05-10T01:10:40.950Z,21.5
2015-05-10T01:10:59.200Z,21.5
2015-05-10T01:11:17.453Z,21.5
2015-05-10T01:11:35.703Z,21.5
2015-05-10T01:11:53.953Z,21.5
2015-05-10T01:12:12.189Z,21.5
2015-05-10T01:12:30.439Z,21.5
2015-05-10T01:12:48.689Z,21.5
2015-05-10T01:13:06.942Z,21.5
2015-05-10T01:13:25.176Z,21.5
2015-05-10T01:13:43.426Z,21.5
2015-05-10T01:14:01.676Z,21.5
2015-05-10T01:14:19.914Z,21.5
2015-05-10T01:14:38.164Z,21.5
2015-05-10T01:14:56.398Z,21.5
2015-05-10T01:15:14.650Z,21.5
2015-05-10T01:15:32.900Z,21.5
2015-05-10T01:15:51.150Z,21.4
2015-05-10T01:16:09.387Z,21.5
2015-05-10T01:16:27.637Z,21.5
2015-05-10T01:16:45.872Z,21.5
2015-05-10T01:17:04.122Z,21.5
2015-05-10T01:17:22.374Z,21.5
2015-05-10T01:17:40.624Z,21.5
2015-05-10T01:17:58.874Z,21.5
2015-05-10T01:18:17.126Z,21.5
2015-05-10T01:18:35.360Z,21.5
2015-05-10T01:18:53.610Z,21.5
2015-05-10T01:19:11.860Z,21.5
2015-05-10T01:19:30.097Z,21.5
2015-05-10T01:19:48.347Z,21.5
2015-05-10T01:20:06.597Z,21.5
2015-05-10T01:20:24.849Z,21.4
2015-05-10T01:20:43.084Z,21.5
2015-05-10T01:21:01.334Z,21.5
2015-05-10T01:21:19.584Z,21.4
2015-05-10T01:21:37.821Z,21.5
2015-05-10T01:21:56.071Z,21.5
2015-05-10T01:22:14.321Z,21.4
2015-05-10T01:22:32.557Z,21.4
2015-05-10T01:22:50.807Z,21.4
2015-05-10T01:23:09.057Z,21.4
2015-05-10T01:23:27.294Z,21.5
2015-05-10T01:23:45.544Z,21.4
2015-05-10T01:24:03.794Z,21.4
2015-05-10T01:24:22.044Z,21.4
2015-05-10T01:24:40.296Z,21.4
2015-05-10T01:24:58.530Z,21.4
2015-05-10T01:25:16.780Z,21.4
2015-05-10T01:25:35.032Z,21.4
2015-05-10T01:25:53.282Z,21.4
2015-05-10T01:26:11.532Z,21.4
2015-05-10T01:26:29.801Z,21.4
2015-05-10T01:26:48.035Z,21.4
2015-05-10T01:27:06.285Z,21.4
2015-05-10T01:27:24.520Z,21.4
2015-05-10T01:27:42.773Z,21.5
2015-05-10T01:28:01.007Z,21.4
2015-05-10T01:28:19.273Z,21.4
2015-05-10T01:28:37.525Z,21.4
2015-05-10T01:28:55.759Z,21.4
2015-05-10T01:29:13.993Z,21.4
2015-05-10T01:29:32.245Z,21.4
2015-05-10T01:29:50.495Z,21.4
2015-05-10T01:30:08.745Z,21.4
2015-05-10T01:30:26.995Z,21.4
2015-05-10T01:30:45.247Z,21.4
2015-05-10T01:31:03.497Z,21.4
2015-05-10T01:31:21.747Z,21.4
2015-05-10T01:31:40.000Z,21.4
2015-05-10T01:31:58.235Z,21.4
2015-05-10T01:32:16.485Z,21.4
2015-05-10T01:32:34.735Z,21.4
2015-05-10T01:32:52.987Z,21.4
2015-05-10T01:33:11.221Z,21.4
2015-05-10T01:33:29.471Z,21.4
2015-05-10T01:33:47.709Z,21.4
2015-05-10T01:34:05.959Z,21.4
2015-05-10T01:34:24.209Z,21.4
2015-05-10T01:34:42.461Z,21.4
2015-05-10T01:35:00.711Z,21.4
2015-05-10T01:35:18.945Z,21.4
2015-05-10T01:35:37.195Z,21.4
2015-05-10T01:35:55.448Z,21.4
2015-05-10T01:36:13.698Z,21.4
2015-05-10T01:36:31.932Z,21.4
2015-05-10T01:36:50.184Z,21.4
2015-05-10T01:37:08.434Z,21.4
2015-05-10T01:37:26.669Z,21.4
2015-05-10T01:37:44.919Z,21.4
2015-05-10T01:38:03.172Z,21.4
2015-05-10T01:38:21.422Z,21.4
2015-05-10T01:38:39.672Z,21.4
2015-05-10T01:38:57.908Z,21.4
2015-05-10T01:39:16.158Z,21.4
2015-05-10T01:39:34.408Z,21.4
2015-05-10T01:39:52.674Z,21.4
2015-05-10T01:40:10.926Z,21.4
2015-05-10T01:40:29.160Z,21.4
2015-05-10T01:40:47.410Z,21.4
2015-05-10T01:41:05.663Z,21.4
2015-05-10T01:41:23.897Z,21.4
2015-05-10T01:41:42.147Z,21.4
2015-05-10T01:42:00.382Z,21.4
2015-05-10T01:42:18.634Z,21.4
2015-05-10T01:42:36.884Z,21.4
2015-05-10T01:42:55.118Z,21.4
2015-05-10T01:43:13.371Z,21.4
2015-05-10T01:43:31.621Z,21.4
2015-05-10T01:43:49.871Z,21.4
2015-05-10T01:44:08.107Z,21.4
2015-05-10T01:44:26.357Z,21.4
2015-05-10T01:44:44.607Z,21.4
2015-05-10T01:45:02.857Z,21.4
2015-05-10T01:45:21.110Z,21.4
2015-05-10T01:45:39.344Z,21.4
2015-05-10T01:45:57.594Z,21.4
2015-05-10T01:46:15.846Z,21.4
2015-05-10T01:46:34.096Z,21.4
2015-05-10T01:46:52.346Z,21.4
2015-05-10T01:47:10.583Z,21.4
2015-05-10T01:47:28.833Z,21.4
2015-05-10T01:47:47.068Z,21.4
2015-05-10T01:48:05.318Z,21.4
2015-05-10T01:48:23.554Z,21.4
2015-05-10T01:48:41.804Z,21.4
2015-05-10T01:49:00.054Z,21.4
2015-05-10T01:49:18.323Z,21.4
2015-05-10T01:49:36.557Z,21.4
2015-05-10T01:49:54.791Z,21.4
2015-05-10T01:50:13.043Z,21.4
2015-05-10T01:50:31.293Z,21.4
2015-05-10T01:50:49.543Z,21.4
2015-05-10T01:51:07.778Z,21.4
2015-05-10T01:51:26.030Z,21.4
2015-05-10T01:51:44.280Z,21.4
2015-05-10T01:52:02.514Z,21.4
2015-05-10T01:52:20.766Z,21.4
2015-05-10T01:52:39.001Z,21.4
2015-05-10T01:52:57.266Z,21.4
2015-05-10T01:53:15.504Z,21.4
2015-05-10T01:53:33.754Z,21.4
2015-05-10T01:53:52.004Z,21.4
2015-05-10T01:54:10.254Z,21.4
2015-05-10T01:54:28.490Z,21.4
2015-05-10T01:54:46.740Z,21.4
2015-05-10T01:55:04.990Z,21.4
2015-05-10T01:55:23.227Z,21.4
2015-05-10T01:55:41.493Z,21.4
2015-05-10T01:55:59.727Z,21.4
2015-05-10T01:56:17.977Z,21.4
2015-05-10T01:56:36.214Z,21.4
2015-05-10T01:56:54.479Z,21.4
2015-05-10T01:57:12.714Z,21.4
2015-05-10T01:57:30.966Z,21.4
2015-05-10T01:57:49.216Z,21.4
2015-05-10T01:58:07.450Z,21.4
2015-05-10T01:58:25.718Z,21.4
2015-05-10T01:58:43.952Z,21.4
2015-05-10T01:59:02.202Z,21.4
2015-05-10T01:59:20.452Z,21.4
2015-05-10T01:59:38.705Z,21.4
2015-05-10T01:59:56.955Z,21.4
2015-05-10T02:00:15.189Z,21.4
2015-05-10T02:00:33.441Z,21.4
2015-05-10T02:00:51.691Z,21.4
2015-05-10T02:01:09.926Z,21.4
2015-05-10T02:01:28.176Z,21.4
2015-05-10T02:01:46.429Z,21.4
2015-05-10T02:02:04.663Z,21.4
2015-05-10T02:02:22.913Z,21.4
2015-05-10T02:02:41.165Z,21.4
2015-05-10T02:02:59.400Z,21.4
2015-05-10T02:03:17.650Z,21.4
2015-05-10T02:03:35.900Z,21.4
2015-05-10T02:03:54.153Z,21.4
2015-05-10T02:04:12.403Z,21.4
2015-05-10T02:04:30.653Z,21.4
2015-05-10T02:04:48.889Z,21.4
2015-05-10T02:05:07.139Z,21.4
2015-05-10T02:05:25.389Z,21.4
2015-05-10T02:05:43.639Z,21.4
2015-05-10T02:06:01.891Z,21.4
2015-05-10T02:06:20.141Z,21.4
2015-05-10T02:06:38.375Z,21.4
2015-05-10T02:06:56.628Z,21.4
2015-05-10T02:07:14.878Z,21.4
2015-05-10T02:07:33.128Z,21.4
2015-05-10T02:07:51.365Z,21.4
2015-05-10T02:08:09.615Z,21.4
2015-05-10T02:08:27.849Z,21.4
2015-05-10T02:08:46.099Z,21.4
2015-05-10T02:09:04.351Z,21.4
2015-05-10T02:09:22.601Z,21.4
2015-05-10T02:09:40.835Z,21.4
2015-05-10T02:09:59.088Z,21.4
2015-05-10T02:10:17.338Z,21.4
2015-05-10T02:10:35.573Z,21.4
2015-05-10T02:10:53.826Z,21.4
2015-05-10T02:11:12.076Z,21.3
2015-05-10T02:11:30.341Z,21.3
2015-05-10T02:11:48.576Z,21.3
2015-05-10T02:12:06.828Z,21.3
2015-05-10T02:12:25.062Z,21.3
2015-05-10T02:12:43.312Z,21.3
2015-05-10T02:13:01.564Z,21.4
2015-05-10T02:13:19.830Z,21.3
2015-05-10T02:13:38.064Z,21.3
2015-05-10T02:13:56.332Z,21.3
2015-05-10T02:14:14.566Z,21.3
2015-05-10T02:14:32.816Z,21.3
2015-05-10T02:14:51.051Z,21.3
2015-05-10T02:15:09.304Z,21.3
2015-05-10T02:15:27.538Z,21.3
2015-05-10T02:15:45.788Z,21.3
2015-05-10T02:16:04.040Z,21.3
2015-05-10T02:16:22.274Z,21.3
2015-05-10T02:16:40.524Z,21.3
2015-05-10T02:16:58.774Z,21.3
2015-05-10T02:17:17.011Z,21.3
2015-05-10T02:17:35.261Z,21.3
2015-05-10T02:17:53.511Z,21.3
2015-05-10T02:18:11.763Z,21.3
2015-05-10T02:18:29.997Z,21.3
2015-05-10T02:18:48.247Z,21.3
2015-05-10T02:19:06.501Z,21.3
2015-05-10T02:19:24.751Z,21.4
2015-05-10T02:19:43.001Z,21.3
2015-05-10T02:20:01.251Z,21.3
2015-05-10T02:20:19.503Z,21.3
2015-05-10T02:20:37.737Z,21.3
2015-05-10T02:20:55.987Z,21.3
2015-05-10T02:21:14.239Z,21.3
2015-05-10T02:21:32.489Z,21.3
2015-05-10T02:21:50.739Z,21.3
2015-05-10T02:22:08.974Z,21.3
2015-05-10T02:22:27.227Z,21.3
2015-05-10T02:22:45.477Z,21.3
2015-05-10T02:23:03.711Z,21.3
2015-05-10T02:23:21.963Z,21.3
2015-05-10T02:23:40.213Z,21.3
2015-05-10T02:23:58.463Z,21.3
2015-05-10T02:24:16.700Z,21.3
2015-05-10T02:24:34.950Z,21.3
2015-05-10T02:24:53.200Z,21.3
2015-05-10T02:25:11.450Z,21.3
2015-05-10T02:25:29.687Z,21.3
2015-05-10T02:25:47.937Z,21.3
2015-05-10T02:26:06.187Z,21.3
2015-05-10T02:26:24.423Z,21.3
2015-05-10T02:26:42.673Z,21.3
2015-05-10T02:27:00.923Z,21.3
2015-05-10T02:27:19.175Z,21.3
2015-05-10T02:27:37.410Z,21.3
2015-05-10T02:27:55.660Z,21.3
2015-05-10T02:28:13.910Z,21.3
2015-05-10T02:28:32.147Z,21.3
2015-05-10T02:28:50.397Z,21.3
2015-05-10T02:29:08.647Z,21.3
2015-05-10T02:29:26.883Z,21.3
2015-05-10T02:29:45.133Z,21.3
2015-05-10T02:30:03.383Z,21.3
2015-05-10T02:30:21.635Z,21.3
2015-05-10T02:30:39.870Z,21.3
2015-05-10T02:30:58.120Z,21.3
2015-05-10T02:31:16.370Z,21.3
2015-05-10T02:31:34.607Z,21.3
2015-05-10T02:31:52.857Z,21.3
2015-05-10T02:32:11.107Z,21.3
2015-05-10T02:32:29.344Z,21.3
2015-05-10T02:32:47.594Z,21.3
2015-05-10T02:33:05.844Z,21.3
2015-05-10T02:33:24.096Z,21.3
2015-05-10T02:33:42.330Z,21.3
2015-05-10T02:34:00.580Z,21.3
2015-05-10T02:34:18.830Z,21.3
2015-05-10T02:34:37.066Z,21.3
2015-05-10T02:34:55.316Z,21.3
2015-05-10T02:35:13.566Z,21.3
2015-05-10T02:35:31.804Z,21.3
2015-05-10T02:35:50.054Z,21.3
2015-05-10T02:36:08.304Z,21.3
2015-05-10T02:36:26.538Z,21.3
2015-05-10T02:36:44.790Z,21.3
2015-05-10T02:37:03.040Z,21.3
2015-05-10T02:37:21.274Z,21.3
2015-05-10T02:37:39.527Z,21.3
2015-05-10T02:37:57.777Z,21.3
2015-05-10T02:38:16.027Z,21.3
2015-05-10T02:38:34.264Z,21.3
2015-05-10T02:38:52.529Z,21.3
2015-05-10T02:39:10.764Z,21.3
2015-05-10T02:39:29.014Z,21.3
2015-05-10T02:39:47.267Z,21.3
2015-05-10T02:40:05.501Z,21.3
2015-05-10T02:40:23.751Z,21.3
2015-05-10T02:40:42.019Z,21.3
2015-05-10T02:41:00.253Z,21.3
2015-05-10T02:41:18.503Z,21.3
2015-05-10T02:41:36.753Z,21.3
2015-05-10T02:41:55.005Z,21.3
2015-05-10T02:42:13.255Z,21.3
2015-05-10T02:42:31.490Z,21.3
2015-05-10T02:42:49.742Z,21.3
2015-05-10T02:43:07.992Z,21.3
2015-05-10T02:43:26.226Z,21.3
2015-05-10T02:43:44.476Z,21.3
2015-05-10T02:44:02.730Z,21.3
2015-05-10T02:44:20.964Z,21.3
2015-05-10T02:44:39.214Z,21.3
2015-05-10T02:44:57.466Z,21.3
2015-05-10T02:45:15.701Z,21.3
2015-05-10T02:45:33.951Z,21.3
2015-05-10T02:45:52.203Z,21.3
2015-05-10T02:46:10.437Z,21.3
2015-05-10T02:46:28.687Z,21.3
2015-05-10T02:46:46.937Z,21.3
2015-05-10T02:47:05.189Z,21.3
2015-05-10T02:47:23.423Z,21.3
2015-05-10T02:47:41.673Z,21.3
2015-05-10T02:47:59.925Z,21.3
2015-05-10T02:48:18.175Z,21.3
2015-05-10T02:48:36.441Z,21.3
2015-05-10T02:48:54.663Z,21.3
2015-05-10T02:49:12.913Z,21.3
2015-05-10T02:49:31.147Z,21.3
2015-05-10T02:49:49.397Z,21.3
2015-05-10T02:50:07.649Z,21.3
2015-05-10T02:50:25.899Z,21.3
2015-05-10T02:50:44.149Z,21.3
2015-05-10T02:51:02.387Z,21.3
2015-05-10T02:51:20.637Z,21.3
2015-05-10T02:51:38.871Z,21.3
2015-05-10T02:51:57.123Z,21.3
2015-05-10T02:52:15.373Z,21.3
2015-05-10T02:52:33.623Z,21.3
2015-05-10T02:52:51.857Z,21.3
2015-05-10T02:53:10.109Z,21.3
2015-05-10T02:53:28.359Z,21.3
2015-05-10T02:53:46.609Z,21.3
2015-05-10T02:54:04.846Z,21.3
2015-05-10T02:54:23.096Z,21.3
2015-05-10T02:54:41.346Z,21.3
2015-05-10T02:54:59.580Z,21.3
2015-05-10T02:55:17.833Z,21.3
2015-05-10T02:55:36.083Z,21.3
2015-05-10T02:55:54.333Z,21.3
2015-05-10T02:56:12.569Z,21.3
2015-05-10T02:56:30.819Z,21.3
2015-05-10T02:56:49.054Z,21.3
2015-05-10T02:57:07.150Z,21.3
2015-05-10T02:57:25.384Z,21.3
2015-05-10T02:57:43.634Z,21.3
2015-05-10T02:58:01.884Z,21.3
2015-05-10T02:58:20.137Z,21.3
2015-05-10T02:58:38.371Z,21.3
2015-05-10T02:58:56.637Z,21.3
2015-05-10T02:59:14.874Z,21.3
2015-05-10T02:59:33.124Z,21.3
2015-05-10T02:59:51.359Z,21.3
2015-05-10T03:00:09.624Z,21.3
2015-05-10T03:00:27.861Z,21.3
2015-05-10T03:00:46.111Z,21.3
2015-05-10T03:01:04.361Z,21.3
2015-05-10T03:01:22.614Z,21.3
2015-05-10T03:01:40.864Z,21.3
2015-05-10T03:01:59.098Z,21.3
2015-05-10T03:02:17.348Z,21.3
2015-05-10T03:02:35.600Z,21.3
2015-05-10T03:02:53.850Z,21.3
2015-05-10T03:03:12.100Z,21.3
2015-05-10T03:03:30.352Z,21.3
2015-05-10T03:03:48.602Z,21.3
2015-05-10T03:04:06.852Z,21.3
2015-05-10T03:04:25.088Z,21.3
2015-05-10T03:04:43.338Z,21.3
2015-05-10T03:05:01.588Z,21.3
2015-05-10T03:05:19.838Z,21.3
2015-05-10T03:05:38.076Z,21.3
2015-05-10T03:05:56.310Z,21.3
2015-05-10T03:06:14.576Z,21.3
2015-05-10T03:06:32.829Z,21.3
2015-05-10T03:06:51.079Z,21.3
2015-05-10T03:07:09.313Z,21.3
2015-05-10T03:07:27.565Z,21.3
2015-05-10T03:07:45.815Z,21.3
2015-05-10T03:08:04.065Z,21.3
2015-05-10T03:08:22.315Z,21.3
2015-05-10T03:08:40.411Z,21.3
2015-05-10T03:08:58.661Z,21.3
2015-05-10T03:09:16.911Z,21.3
2015-05-10T03:09:35.148Z,21.3
2015-05-10T03:09:53.398Z,21.3
2015-05-10T03:10:11.648Z,21.3
2015-05-10T03:10:29.900Z,21.3
2015-05-10T03:10:48.150Z,21.3
2015-05-10T03:11:06.400Z,21.3
2015-05-10T03:11:24.635Z,21.3
2015-05-10T03:11:42.887Z,21.3
2015-05-10T03:12:01.137Z,21.3
2015-05-10T03:12:19.387Z,21.3
2015-05-10T03:12:37.639Z,21.3
2015-05-10T03:12:55.889Z,21.3
2015-05-10T03:13:14.123Z,21.3
2015-05-10T03:13:32.376Z,21.3
2015-05-10T03:13:50.642Z,21.3
2015-05-10T03:14:08.876Z,21.3
2015-05-10T03:14:27.126Z,21.3
2015-05-10T03:14:45.378Z,21.3
2015-05-10T03:15:03.628Z,21.3
2015-05-10T03:15:21.878Z,21.3
2015-05-10T03:15:40.115Z,21.3
2015-05-10T03:15:58.365Z,21.3
2015-05-10T03:16:16.615Z,21.3
2015-05-10T03:16:34.865Z,21.3
2015-05-10T03:16:53.102Z,21.3
2015-05-10T03:17:11.352Z,21.3
2015-05-10T03:17:29.602Z,21.3
2015-05-10T03:17:47.854Z,21.3
2015-05-10T03:18:06.104Z,21.3
2015-05-10T03:18:24.338Z,21.3
2015-05-10T03:18:42.591Z,21.3
2015-05-10T03:19:00.841Z,21.3
2015-05-10T03:19:19.091Z,21.3
2015-05-10T03:19:37.326Z,21.3
2015-05-10T03:19:55.578Z,21.3
2015-05-10T03:20:13.828Z,21.3
2015-05-10T03:20:32.062Z,21.3
2015-05-10T03:20:50.315Z,21.3
2015-05-10T03:21:08.565Z,21.3
2015-05-10T03:21:26.815Z,21.3
2015-05-10T03:21:45.049Z,21.4
2015-05-10T03:22:03.317Z,21.4
2015-05-10T03:22:21.551Z,21.4
2015-05-10T03:22:39.801Z,21.4
2015-05-10T03:22:58.053Z,21.4
2015-05-10T03:23:16.303Z,21.4
2015-05-10T03:23:34.553Z,21.4
2015-05-10T03:23:52.788Z,21.4
2015-05-10T03:24:11.041Z,21.4
2015-05-10T03:24:29.291Z,21.4
2015-05-10T03:24:47.541Z,21.4
2015-05-10T03:25:05.793Z,21.4
2015-05-10T03:25:24.027Z,21.4
2015-05-10T03:25:42.277Z,21.4
2015-05-10T03:26:00.529Z,21.4
2015-05-10T03:26:18.779Z,21.4
2015-05-10T03:26:37.029Z,21.4
2015-05-10T03:26:55.279Z,21.4
2015-05-10T03:27:13.515Z,21.4
2015-05-10T03:27:31.765Z,21.4
2015-05-10T03:27:50.015Z,21.4
2015-05-10T03:28:08.268Z,21.4
2015-05-10T03:28:26.503Z,21.4
2015-05-10T03:28:44.753Z,21.3
2015-05-10T03:29:03.006Z,21.4
2015-05-10T03:29:21.256Z,21.3
2015-05-10T03:29:39.506Z,21.3
2015-05-10T03:29:57.756Z,21.3
2015-05-10T03:30:16.008Z,21.3
2015-05-10T03:30:34.242Z,21.3
2015-05-10T03:30:52.508Z,21.3
2015-05-10T03:31:10.761Z,21.3
2015-05-10T03:31:29.011Z,21.3
2015-05-10T03:31:47.261Z,21.3
2015-05-10T03:32:05.496Z,21.3
2015-05-10T03:32:23.746Z,21.3
2015-05-10T03:32:41.996Z,21.3
2015-05-10T03:33:00.231Z,21.3
2015-05-10T03:33:18.484Z,21.3
2015-05-10T03:33:36.734Z,21.3
2015-05-10T03:33:54.984Z,21.3
2015-05-10T03:34:13.236Z,21.3
2015-05-10T03:34:31.486Z,21.3
2015-05-10T03:34:49.736Z,21.3
2015-05-10T03:35:07.970Z,21.3
2015-05-10T03:35:26.222Z,21.3
2015-05-10T03:35:44.472Z,21.3
2015-05-10T03:36:02.722Z,21.3
2015-05-10T03:36:20.975Z,21.3
2015-05-10T03:36:39.225Z,21.3
2015-05-10T03:36:57.475Z,21.3
2015-05-10T03:37:15.727Z,21.3
2015-05-10T03:37:33.961Z,21.3
2015-05-10T03:37:52.211Z,21.3
2015-05-10T03:38:10.461Z,21.3
2015-05-10T03:38:28.714Z,21.3
2015-05-10T03:38:46.964Z,21.3
2015-05-10T03:39:05.214Z,21.3
2015-05-10T03:39:23.451Z,21.3
2015-05-10T03:39:41.701Z,21.3
2015-05-10T03:39:59.951Z,21.3
2015-05-10T03:40:18.187Z,21.3
2015-05-10T03:40:36.453Z,21.3
2015-05-10T03:40:54.687Z,21.3
2015-05-10T03:41:12.937Z,21.3
2015-05-10T03:41:31.190Z,21.3
2015-05-10T03:41:49.440Z,21.3
2015-05-10T03:42:07.690Z,21.3
2015-05-10T03:42:25.943Z,21.3
2015-05-10T03:42:44.193Z,21.2
2015-05-10T03:43:02.443Z,21
2015-05-10T03:43:20.677Z,20.8
2015-05-10T03:43:38.929Z,20.8
2015-05-10T03:43:57.179Z,20.8
2015-05-10T03:44:15.429Z,20.7
2015-05-10T03:44:33.666Z,20.7
2015-05-10T03:44:51.916Z,20.6
2015-05-10T03:45:10.181Z,20.5
2015-05-10T03:45:28.416Z,20.5
2015-05-10T03:45:46.669Z,20.3
2015-05-10T03:46:04.919Z,20.3
2015-05-10T03:46:23.169Z,20.2
2015-05-10T03:46:41.405Z,20.2
2015-05-10T03:46:59.671Z,20.1
2015-05-10T03:47:17.905Z,20.1
2015-05-10T03:47:36.157Z,20
2015-05-10T03:47:54.392Z,20.1
2015-05-10T03:48:12.642Z,19.9
2015-05-10T03:48:30.892Z,19.8
2015-05-10T03:48:49.145Z,19.6
2015-05-10T03:49:07.379Z,19.5
2015-05-10T03:49:25.645Z,19.5
2015-05-10T03:49:43.881Z,19.5
2015-05-10T03:50:02.131Z,19.6
2015-05-10T03:50:20.365Z,19.5
2015-05-10T03:50:38.617Z,19.3
2015-05-10T03:50:56.867Z,19.2
2015-05-10T03:51:15.117Z,19.2
2015-05-10T03:51:33.352Z,19.1
2015-05-10T03:51:51.605Z,19.1
2015-05-10T03:52:09.855Z,19
2015-05-10T03:52:28.089Z,18.8
2015-05-10T03:52:46.341Z,18.8
2015-05-10T03:53:04.591Z,18.8
2015-05-10T03:53:22.825Z,18.8
2015-05-10T03:53:41.077Z,18.9
2015-05-10T03:53:59.312Z,19
2015-05-10T03:54:17.546Z,18.9
2015-05-10T03:54:35.796Z,18.8
2015-05-10T03:54:54.048Z,18.7
2015-05-10T03:55:12.298Z,18.7
2015-05-10T03:55:30.533Z,18.6
2015-05-10T03:55:48.786Z,18.6
2015-05-10T03:56:07.036Z,18.7
2015-05-10T03:56:25.270Z,18.9
2015-05-10T03:56:43.520Z,19
2015-05-10T03:57:01.772Z,19
2015-05-10T03:57:20.022Z,19
2015-05-10T03:57:38.256Z,19.1
2015-05-10T03:57:56.509Z,19
2015-05-10T03:58:14.744Z,19
2015-05-10T03:58:32.994Z,19.1
2015-05-10T03:58:51.230Z,19.1
2015-05-10T03:59:09.480Z,19.1
2015-05-10T03:59:27.730Z,19
2015-05-10T03:59:45.980Z,19
2015-05-10T04:00:04.217Z,18.9
2015-05-10T04:00:22.467Z,18.8
2015-05-10T04:00:40.702Z,18.6
2015-05-10T04:00:58.954Z,18.7
2015-05-10T04:01:17.204Z,18.6
2015-05-10T04:01:35.454Z,18.5
2015-05-10T04:01:53.688Z,18.6
2015-05-10T04:02:11.940Z,18.7
2015-05-10T04:02:30.190Z,18.8
2015-05-10T04:02:48.425Z,18.9
2015-05-10T04:03:06.677Z,18.9